createdAt,value
2018-12-06T00:02:32.178Z,16.40
2018-12-06T00:06:35.089Z,14.57
2018-12-06T00:10:38.166Z,14.33
2018-12-06T00:14:41.033Z,14.70
2018-12-06T00:18:50.693Z,15.30
2018-12-06T00:22:53.693Z,14.43
2018-12-06T00:26:56.986Z,15.07
2018-12-06T00:30:59.858Z,16.70
2018-12-06T00:35:02.852Z,17.87
2018-12-06T00:39:06.945Z,15.00
2018-12-06T00:43:09.817Z,15.07
2018-12-06T00:47:12.698Z,15.40
2018-12-06T00:51:15.777Z,16.70
2018-12-06T00:55:18.646Z,16.47
2018-12-06T00:59:21.766Z,17.67
2018-12-06T01:03:24.905Z,18.57
2018-12-06T01:07:27.949Z,17.23
2018-12-06T01:11:31.089Z,17.13
2018-12-06T01:15:33.965Z,17.73
2018-12-06T01:19:36.932Z,20.53
2018-12-06T01:23:39.809Z,17.33
2018-12-06T01:27:42.885Z,18.07
2018-12-06T01:31:45.769Z,18.70
2018-12-06T01:35:48.641Z,17.10
2018-12-06T01:39:51.834Z,18.17
2018-12-06T01:43:54.785Z,18.33
2018-12-06T01:47:57.998Z,17.83
2018-12-06T01:52:01.141Z,16.30
2018-12-06T01:56:04.085Z,15.30
2018-12-06T02:00:08.222Z,16.87
2018-12-06T02:04:11.197Z,16.80
2018-12-06T02:08:14.073Z,17.13
2018-12-06T02:12:17.369Z,17.00
2018-12-06T02:16:20.261Z,18.77
2018-12-06T02:20:23.490Z,16.40
2018-12-06T02:24:26.531Z,18.30
2018-12-06T02:28:29.677Z,18.90
2018-12-06T02:32:32.825Z,19.20
2018-12-06T02:36:35.770Z,17.30
2018-12-06T02:40:38.910Z,16.63
2018-12-06T02:44:41.853Z,19.47
2018-12-06T02:48:44.721Z,19.77
2018-12-06T02:52:47.827Z,18.30
2018-12-06T02:56:51.077Z,20.27
2018-12-06T03:00:54.054Z,19.47
2018-12-06T03:04:56.921Z,21.77
2018-12-06T03:08:59.806Z,17.60
2018-12-06T03:13:02.830Z,20.00
2018-12-06T03:17:06.295Z,18.07
2018-12-06T03:21:09.165Z,21.37
2018-12-06T03:25:12.201Z,17.63
2018-12-06T03:29:15.355Z,17.83
2018-12-06T03:33:18.590Z,20.10
2018-12-06T03:37:21.458Z,21.80
2018-12-06T03:41:24.438Z,18.53
2018-12-06T03:45:27.730Z,20.90
2018-12-06T03:49:30.693Z,18.23
2018-12-06T03:53:33.843Z,19.93
2018-12-06T03:57:36.721Z,21.53
2018-12-06T04:01:40.742Z,20.60
2018-12-06T04:05:43.618Z,17.83
2018-12-06T04:09:46.702Z,19.60
2018-12-06T04:13:49.582Z,21.20
2018-12-06T04:17:52.726Z,19.40
2018-12-06T04:21:55.889Z,18.90
2018-12-06T04:25:58.978Z,19.80
2018-12-06T04:30:01.929Z,20.10
2018-12-06T04:34:04.941Z,18.33
2018-12-06T04:38:08.054Z,21.70
2018-12-06T04:42:10.917Z,21.60
2018-12-06T04:46:13.821Z,20.17
2018-12-06T04:50:16.973Z,20.80
2018-12-06T04:54:19.841Z,19.00
2018-12-06T04:58:22.818Z,20.00
2018-12-06T05:02:25.716Z,20.40
2018-12-06T05:06:28.886Z,21.03
2018-12-06T05:10:31.829Z,21.80
2018-12-06T05:14:34.710Z,21.50
2018-12-06T05:18:37.591Z,20.80
2018-12-06T05:22:40.537Z,20.70
2018-12-06T05:26:43.489Z,20.80
2018-12-06T05:30:46.706Z,21.10
2018-12-06T05:34:49.594Z,22.60
2018-12-06T05:38:52.629Z,22.80
2018-12-06T05:42:55.778Z,20.33
2018-12-06T05:46:58.649Z,20.37
2018-12-06T05:51:01.533Z,22.80
2018-12-06T05:55:04.478Z,19.97
2018-12-06T05:59:07.499Z,19.93
2018-12-06T06:03:10.426Z,23.00
2018-12-06T06:07:13.318Z,21.37
2018-12-06T06:11:16.187Z,20.13
2018-12-06T06:15:19.201Z,19.60
2018-12-06T06:19:22.122Z,21.30
2018-12-06T06:23:25.378Z,22.70
2018-12-06T06:27:28.382Z,21.73
2018-12-06T06:31:31.265Z,22.53
2018-12-06T06:35:34.273Z,25.80
2018-12-06T06:39:37.387Z,25.13
2018-12-06T06:43:40.246Z,24.70
2018-12-06T06:47:43.470Z,25.50
2018-12-06T06:51:46.429Z,25.20
2018-12-06T06:55:49.337Z,26.30
2018-12-06T06:59:52.415Z,28.47
2018-12-06T07:03:55.309Z,29.20
2018-12-06T07:07:58.339Z,27.90
2018-12-06T07:12:01.354Z,28.33
2018-12-06T07:16:04.288Z,33.23
2018-12-06T07:20:07.173Z,27.40
2018-12-06T07:24:10.109Z,33.00
2018-12-06T07:28:12.991Z,32.60
2018-12-06T07:32:16.150Z,36.27
2018-12-06T07:36:19.103Z,35.10
2018-12-06T07:40:21.985Z,31.77
2018-12-06T07:44:24.877Z,34.27
2018-12-06T07:48:27.778Z,31.57
2018-12-06T07:52:30.725Z,30.40
2018-12-06T07:56:33.617Z,30.90
2018-12-06T08:00:36.785Z,29.53
2018-12-06T08:04:39.685Z,32.73
2018-12-06T08:08:42.560Z,30.20
2018-12-06T08:12:45.429Z,29.23
2018-12-06T08:16:48.305Z,31.13
2018-12-06T08:20:51.241Z,29.53
2018-12-06T08:24:54.342Z,40.20
2018-12-06T08:28:57.369Z,32.43
2018-12-06T08:33:00.254Z,34.67
2018-12-06T08:37:03.265Z,39.07
2018-12-06T08:41:06.401Z,39.50
2018-12-06T08:45:09.398Z,36.90
2018-12-06T08:49:12.401Z,39.67
2018-12-06T08:53:15.486Z,38.47
2018-12-06T08:57:18.435Z,37.27
2018-12-06T09:01:21.526Z,41.53
2018-12-06T09:05:24.495Z,36.93
2018-12-06T09:09:27.460Z,36.03
2018-12-06T09:13:30.565Z,37.57
2018-12-06T09:17:33.517Z,34.57
2018-12-06T09:21:36.403Z,34.23
2018-12-06T09:25:39.560Z,35.13
2018-12-06T09:29:42.742Z,35.60
2018-12-06T09:33:51.386Z,36.40
2018-12-06T09:37:54.338Z,39.47
2018-12-06T09:41:57.510Z,43.33
2018-12-06T09:46:00.465Z,44.07
2018-12-06T09:50:03.638Z,42.93
2018-12-06T09:54:06.815Z,43.53
2018-12-06T09:58:09.685Z,46.27
2018-12-06T10:02:12.858Z,44.70
2018-12-06T10:06:15.754Z,45.37
2018-12-06T10:10:18.693Z,44.17
2018-12-06T10:14:21.565Z,44.07
2018-12-06T10:18:24.730Z,44.10
2018-12-06T10:22:27.606Z,43.83
2018-12-06T10:26:30.490Z,46.00
2018-12-06T10:30:33.710Z,42.90
2018-12-06T10:34:36.597Z,44.93
2018-12-06T10:38:39.721Z,42.90
2018-12-06T10:42:42.902Z,47.90
2018-12-06T10:46:45.775Z,40.70
2018-12-06T10:50:48.829Z,43.80
2018-12-06T10:54:51.697Z,41.67
2018-12-06T10:58:54.861Z,39.47
2018-12-06T11:03:03.280Z,40.00
2018-12-06T11:07:06.741Z,35.30
2018-12-06T11:11:09.951Z,34.47
2018-12-06T11:15:12.914Z,32.50
2018-12-06T11:19:16.138Z,32.30
2018-12-06T11:23:19.018Z,29.87
2018-12-06T11:27:21.949Z,28.97
2018-12-06T11:31:25.106Z,29.27
2018-12-06T11:35:28.266Z,25.80
2018-12-06T11:39:31.269Z,26.47
2018-12-06T11:43:34.160Z,23.67
2018-12-06T11:47:38.210Z,22.80
2018-12-06T11:51:41.290Z,22.20
2018-12-06T11:55:44.173Z,23.03
2018-12-06T11:59:47.066Z,22.73
2018-12-06T12:03:49.954Z,20.63
2018-12-06T12:07:53.129Z,20.40
2018-12-06T12:11:56.013Z,21.83
2018-12-06T12:15:59.102Z,20.40
2018-12-06T12:20:02.266Z,23.50
2018-12-06T12:24:05.256Z,23.30
2018-12-06T12:28:08.157Z,24.03
2018-12-06T12:32:11.234Z,22.73
2018-12-06T12:36:14.117Z,19.83
2018-12-06T12:40:17.116Z,22.00
2018-12-06T12:44:20.206Z,19.97
2018-12-06T12:48:23.080Z,20.37
2018-12-06T12:52:26.255Z,17.73
2018-12-06T12:56:29.129Z,18.97
2018-12-06T13:01:00.861Z,18.13
2018-12-06T13:05:03.989Z,18.83
2018-12-06T13:09:07.462Z,18.60
2018-12-06T13:13:10.550Z,20.40
2018-12-06T13:17:13.698Z,19.60
2018-12-06T13:21:16.934Z,17.17
2018-12-06T13:25:20.198Z,17.80
2018-12-06T13:29:23.187Z,17.87
2018-12-06T13:33:26.278Z,17.77
2018-12-06T13:37:29.261Z,18.77
2018-12-06T13:41:32.153Z,20.97
2018-12-06T13:45:35.101Z,21.43
2018-12-06T13:49:38.194Z,22.00
2018-12-06T13:53:41.058Z,25.13
2018-12-06T13:57:43.945Z,25.90
2018-12-06T14:01:47.030Z,26.07
2018-12-06T14:05:49.984Z,26.10
2018-12-06T14:09:52.881Z,24.80
2018-12-06T14:13:56.047Z,24.53
2018-12-06T14:17:58.918Z,24.40
2018-12-06T14:22:01.874Z,25.83
2018-12-06T14:26:04.914Z,28.80
2018-12-06T14:30:08.304Z,28.77
2018-12-06T14:34:11.329Z,22.47
2018-12-06T14:38:15.326Z,21.80
2018-12-06T14:42:18.262Z,22.90
2018-12-06T14:46:21.234Z,22.47
2018-12-06T14:50:24.242Z,22.93
2018-12-06T14:54:27.406Z,23.30
2018-12-06T14:58:30.278Z,21.87
2018-12-06T15:02:33.226Z,21.10
2018-12-06T15:06:37.749Z,21.50
2018-12-06T15:10:41.038Z,19.10
2018-12-06T15:14:44.122Z,18.60
2018-12-06T15:18:47.185Z,17.23
2018-12-06T15:22:50.057Z,15.60
2018-12-06T15:26:53.246Z,16.60
2018-12-06T15:30:56.117Z,15.20
2018-12-06T15:34:59.214Z,14.03
2018-12-06T15:39:02.157Z,12.90
2018-12-06T15:43:05.060Z,12.70
2018-12-06T15:47:07.925Z,11.73
2018-12-06T15:51:11.098Z,25.80
2018-12-06T15:55:14.042Z,20.53
2018-12-06T15:59:17.138Z,12.97
2018-12-06T16:03:20.222Z,13.00
2018-12-06T16:07:23.323Z,14.67
2018-12-06T16:11:26.329Z,14.63
2018-12-06T16:15:29.502Z,15.83
2018-12-06T16:19:32.373Z,15.50
2018-12-06T16:23:35.539Z,18.27
2018-12-06T16:27:38.405Z,19.50
2018-12-06T16:31:41.734Z,19.50
2018-12-06T16:35:46.450Z,22.73
2018-12-06T16:39:49.494Z,20.23
2018-12-06T16:43:52.707Z,21.97
2018-12-06T16:47:55.681Z,21.93
2018-12-06T16:51:59.205Z,22.30
2018-12-06T16:56:02.169Z,20.97
2018-12-06T17:00:06.841Z,23.80
2018-12-06T17:04:10.002Z,23.60
2018-12-06T17:08:12.881Z,24.57
2018-12-06T17:12:16.062Z,24.87
2018-12-06T17:16:18.996Z,24.57
2018-12-06T17:20:21.889Z,28.00
2018-12-06T17:24:24.994Z,27.50
2018-12-06T17:28:28.210Z,26.73
2018-12-06T17:32:31.249Z,24.67
2018-12-06T17:36:34.137Z,26.33
2018-12-06T17:40:37.286Z,24.47
2018-12-06T17:44:40.185Z,24.57
2018-12-06T17:48:43.346Z,25.00
2018-12-06T17:52:46.297Z,22.20
2018-12-06T17:56:49.142Z,25.63
2018-12-06T18:00:52.113Z,22.20
2018-12-06T18:04:55.082Z,25.50
2018-12-06T18:08:58.274Z,23.17
2018-12-06T18:13:01.207Z,22.20
2018-12-06T18:17:04.554Z,22.53
2018-12-06T18:21:07.422Z,22.03
2018-12-06T18:25:10.674Z,22.60
2018-12-06T18:29:13.915Z,22.47
2018-12-06T18:33:16.841Z,21.60
2018-12-06T18:37:19.773Z,23.83
2018-12-06T18:41:22.741Z,24.20
2018-12-06T18:45:25.682Z,22.33
2018-12-06T18:49:28.581Z,23.90
2018-12-06T18:53:31.673Z,22.73
2018-12-06T18:57:34.655Z,22.13
2018-12-06T19:01:37.600Z,22.63
2018-12-06T19:05:40.565Z,22.10
2018-12-06T19:09:43.609Z,22.90
2018-12-06T19:13:46.579Z,25.03
2018-12-06T19:17:49.457Z,21.93
2018-12-06T19:21:52.361Z,22.60
2018-12-06T19:25:55.239Z,23.97
2018-12-06T19:29:58.482Z,22.17
2018-12-06T19:34:01.445Z,24.23
2018-12-06T19:38:04.394Z,20.57
2018-12-06T19:42:07.266Z,23.10
2018-12-06T19:46:10.362Z,21.47
2018-12-06T19:50:13.304Z,21.73
2018-12-06T19:54:16.273Z,19.37
2018-12-06T19:58:19.430Z,17.70
2018-12-06T20:02:22.398Z,19.50
2018-12-06T20:06:25.365Z,19.80
2018-12-06T20:10:28.462Z,18.20
2018-12-06T20:14:31.651Z,18.30
2018-12-06T20:18:34.549Z,18.20
2018-12-06T20:22:37.421Z,18.03
2018-12-06T20:26:40.313Z,18.60
2018-12-06T20:30:43.182Z,16.23
2018-12-06T20:34:46.181Z,15.77
2018-12-06T20:38:49.286Z,14.20
2018-12-06T20:42:52.342Z,13.80
2018-12-06T20:46:55.436Z,13.50
2018-12-06T20:50:58.315Z,13.00
2018-12-06T20:55:01.270Z,12.30
2018-12-06T20:59:04.217Z,12.07
2018-12-06T21:03:07.104Z,11.50
2018-12-06T21:07:10.294Z,11.60
2018-12-06T21:11:13.230Z,10.83
2018-12-06T21:15:16.411Z,9.57
2018-12-06T21:19:19.346Z,9.40
2018-12-06T21:23:22.229Z,10.43
2018-12-06T21:27:25.386Z,7.73
2018-12-06T21:31:28.422Z,9.77
2018-12-06T21:35:31.290Z,8.60
2018-12-06T21:39:34.512Z,9.07
2018-12-06T21:43:37.383Z,8.43
2018-12-06T21:47:40.279Z,9.13
2018-12-06T21:51:43.141Z,8.73
2018-12-06T21:55:46.186Z,8.73
2018-12-06T21:59:49.049Z,8.00
2018-12-06T22:03:51.996Z,8.57
2018-12-06T22:07:54.882Z,8.20
2018-12-06T22:11:57.798Z,8.17
2018-12-06T22:16:00.681Z,7.47
2018-12-06T22:20:04.386Z,8.77
2018-12-06T22:24:07.259Z,8.47
2018-12-06T22:28:10.131Z,7.97
2018-12-06T22:32:13.077Z,8.00
2018-12-06T22:36:16.176Z,8.13
2018-12-06T22:40:19.229Z,7.40
2018-12-06T22:44:22.390Z,8.00
2018-12-06T22:48:25.313Z,8.57
2018-12-06T22:52:28.197Z,7.20
2018-12-06T22:56:31.090Z,7.23
2018-12-06T23:00:35.093Z,8.57
2018-12-06T23:04:37.961Z,7.00
2018-12-06T23:08:40.835Z,6.90
2018-12-06T23:12:43.769Z,6.20
2018-12-06T23:16:46.733Z,6.17
2018-12-06T23:20:49.897Z,7.10
2018-12-06T23:24:52.773Z,7.43
2018-12-06T23:28:55.634Z,7.10
2018-12-06T23:32:58.862Z,7.70
2018-12-06T23:37:01.725Z,6.23
2018-12-06T23:41:04.705Z,6.33
2018-12-06T23:45:07.926Z,6.80
2018-12-06T23:49:11.079Z,7.10
2018-12-06T23:53:13.957Z,6.53
2018-12-06T23:57:17.005Z,7.10
